Time;durP1;ratioP1;P1;durP2;ratioP2;P2;SDS_P1;SDS_P2;PMS_P1;PMS_P2;Temp;Humidity;BMP_temperature;BMP_pressure;BME280_temperature;BME280_humidity;BME280_pressure;Samples;Min_cycle;Max_cycle;Signal;HPM_P1;HPM_P2
2022/02/01 00:03:31;;;;;;;2.20;1.73;;;2.40;99.90;;;;;;5011661;28;20136;-84
2022/02/01 00:08:34;;;;;;;3.17;1.83;;;2.40;99.90;;;;;;5011780;28;20029;-84
2022/02/01 00:13:41;;;;;;;2.67;1.70;;;2.30;99.90;;;;;;5011474;28;20124;-85
2022/02/01 00:37:50;;;;;;;2.33;1.77;;;1.90;99.90;;;;;;4993473;28;20034;-76
2022/02/01 00:40:16;;;;;;;3.03;1.97;;;1.90;99.90;;;;;;4993384;28;20022;-77
2022/02/01 00:42:41;;;;;;;2.20;1.80;;;1.70;99.90;;;;;;4993096;28;20395;-76
2022/02/01 00:45:07;;;;;;;2.83;1.57;;;1.60;99.90;;;;;;4993211;28;20027;-76
2022/02/01 00:47:33;;;;;;;2.13;1.70;;;1.60;99.90;;;;;;5004065;28;20034;-76
2022/02/01 00:49:59;;;;;;;2.23;1.87;;;1.50;99.90;;;;;;5012812;28;20030;-76
2022/02/01 00:52:27;;;;;;;2.00;1.60;;;1.40;99.90;;;;;;5012577;28;20037;-76
2022/02/01 00:54:52;;;;;;;2.43;1.50;;;1.40;99.90;;;;;;5011414;28;20513;-75
2022/02/01 00:57:18;;;;;;;2.13;1.63;;;1.40;99.90;;;;;;5012988;28;20061;-76
2022/02/01 00:59:44;;;;;;;1.87;1.57;;;1.40;99.90;;;;;;5012554;28;20028;-76
2022/02/01 01:02:10;;;;;;;2.50;1.60;;;1.40;99.90;;;;;;5012654;28;20107;-76
2022/02/01 01:04:36;;;;;;;2.00;1.50;;;1.40;99.90;;;;;;5012872;28;20108;-76
2022/02/01 01:07:02;;;;;;;1.83;1.53;;;1.40;99.90;;;;;;5012903;28;20029;-77
2022/02/01 01:09:27;;;;;;;2.40;1.50;;;1.40;99.90;;;;;;5012861;28;20037;-77
2022/02/01 01:11:56;;;;;;;2.10;1.60;;;1.30;99.90;;;;;;5012749;28;20032;-77
2022/02/01 01:14:52;;;;;;;2.70;1.57;;;1.30;99.90;;;;;;5012677;28;20169;-76
2022/02/01 01:44:41;;;;;;;2.03;1.80;;;1.60;99.90;;;;;;5012754;28;20036;-77
2022/02/01 01:55:33;;;;;;;3.73;2.93;;;1.60;99.90;;;;;;5000673;28;20107;-76
2022/02/01 01:57:59;;;;;;;3.03;2.17;;;1.60;99.90;;;;;;5012474;28;20030;-75
2022/02/01 02:03:26;;;;;;;2.60;2.40;;;1.80;99.90;;;;;;4974792;28;20101;-75
2022/02/01 02:05:52;;;;;;;4.27;2.57;;;1.80;99.90;;;;;;4992260;28;20449;-75
2022/02/01 02:08:19;;;;;;;2.67;2.37;;;1.80;99.90;;;;;;5011322;28;20125;-75
2022/02/01 02:11:23;;;;;;;3.80;2.77;;;1.80;99.90;;;;;;4996194;28;20135;-76
2022/02/01 02:16:23;;;;;;;4.05;3.13;;;1.90;99.90;;;;;;4996795;28;20221;-76
2022/02/01 02:18:49;;;;;;;4.57;3.13;;;1.90;99.90;;;;;;4996538;28;20090;-76
2022/02/01 02:21:17;;;;;;;3.73;3.00;;;2.00;99.90;;;;;;4996283;28;20117;-76
2022/02/01 02:23:43;;;;;;;3.57;3.03;;;2.00;99.90;;;;;;5002278;28;20014;-76
2022/02/01 02:26:17;;;;;;;5.13;3.17;;;2.00;99.90;;;;;;5015487;28;20018;-76
2022/02/01 02:28:46;;;;;;;4.30;3.20;;;2.10;99.90;;;;;;5015260;28;20394;-76
2022/02/01 02:31:12;;;;;;;3.97;3.27;;;2.00;99.90;;;;;;5015343;28;20040;-75
2022/02/01 02:33:38;;;;;;;4.30;3.37;;;2.00;99.90;;;;;;5015217;28;20030;-75
2022/02/01 02:36:16;;;;;;;4.40;3.30;;;2.00;99.90;;;;;;5015269;28;20382;-76
2022/02/01 02:38:51;;;;;;;4.67;3.67;;;2.00;99.90;;;;;;5015484;28;20024;-76
2022/02/01 02:46:36;;;;;;;6.03;3.73;;;2.00;99.90;;;;;;5015013;28;20036;-75
2022/02/01 02:49:06;;;;;;;5.67;4.23;;;2.10;99.90;;;;;;5014723;28;20076;-75
2022/02/01 02:51:32;;;;;;;6.43;4.33;;;2.00;99.90;;;;;;5014760;28;20076;-76
2022/02/01 02:54:01;;;;;;;5.10;3.97;;;2.00;99.90;;;;;;5014566;28;20472;-75
2022/02/01 02:56:26;;;;;;;7.13;4.20;;;2.00;99.90;;;;;;5014598;28;20022;-76
2022/02/01 02:58:52;;;;;;;5.17;3.90;;;2.00;99.90;;;;;;5014579;28;20022;-76
2022/02/01 03:01:20;;;;;;;6.33;4.00;;;2.10;99.90;;;;;;5014530;28;20101;-75
2022/02/01 03:03:46;;;;;;;5.43;4.50;;;2.10;99.90;;;;;;5014596;28;20038;-75
2022/02/01 03:06:11;;;;;;;6.67;4.40;;;2.00;99.90;;;;;;5014362;28;20040;-76
2022/02/01 03:08:37;;;;;;;5.43;4.53;;;2.00;99.90;;;;;;5014494;28;20092;-76
2022/02/01 03:11:09;;;;;;;6.97;4.33;;;2.00;99.90;;;;;;5013115;28;20501;-76
2022/02/01 03:13:35;;;;;;;5.50;4.07;;;2.00;99.90;;;;;;5014042;28;20034;-76
2022/02/01 03:16:14;;;;;;;5.00;3.70;;;1.90;99.90;;;;;;5014505;28;20542;-76
2022/02/01 03:21:24;;;;;;;5.17;3.90;;;1.80;99.90;;;;;;5014543;28;20056;-75
2022/02/01 03:23:49;;;;;;;5.40;4.03;;;1.80;99.90;;;;;;5013945;28;20073;-76
2022/02/01 03:26:15;;;;;;;7.03;5.10;;;1.90;99.90;;;;;;5009280;28;20038;-75
2022/02/01 03:28:41;;;;;;;6.67;4.67;;;1.80;99.90;;;;;;4994644;28;20034;-75
2022/02/01 03:31:06;;;;;;;5.93;4.37;;;1.80;99.90;;;;;;5013930;28;20108;-76
2022/02/01 03:33:32;;;;;;;6.30;4.77;;;1.80;99.90;;;;;;5013825;28;20396;-76
2022/02/01 03:35:58;;;;;;;5.87;4.60;;;1.90;99.90;;;;;;5013674;28;20527;-76
2022/02/01 03:38:23;;;;;;;8.33;5.90;;;1.90;99.90;;;;;;5013729;28;20403;-75
2022/02/01 03:40:49;;;;;;;7.27;5.73;;;1.90;99.90;;;;;;5014113;28;20030;-76
2022/02/01 03:43:15;;;;;;;7.70;5.97;;;1.90;99.90;;;;;;5013812;28;20375;-76
2022/02/01 03:45:40;;;;;;;7.50;5.77;;;1.90;99.90;;;;;;5012248;28;20053;-76
2022/02/01 03:48:06;;;;;;;9.13;5.77;;;1.90;99.90;;;;;;5013499;28;20049;-77
2022/02/01 03:50:31;;;;;;;7.67;5.70;;;1.80;99.90;;;;;;5013754;28;20040;-75
2022/02/01 03:52:57;;;;;;;7.87;5.57;;;1.80;99.90;;;;;;5013666;28;20034;-76
2022/02/01 03:55:23;;;;;;;8.70;6.07;;;1.80;99.90;;;;;;5012773;28;20032;-76
2022/02/01 03:57:48;;;;;;;8.23;5.63;;;1.90;99.90;;;;;;5013376;28;20117;-77
2022/02/01 04:00:14;;;;;;;8.30;6.10;;;1.80;99.90;;;;;;5013362;28;20033;-76
2022/02/01 04:02:40;;;;;;;8.83;6.67;;;1.80;99.90;;;;;;5012995;28;20046;-76
2022/02/01 04:05:06;;;;;;;8.30;6.30;;;1.70;99.90;;;;;;5013508;28;20472;-77
2022/02/01 04:07:31;;;;;;;8.57;5.40;;;1.70;99.90;;;;;;5013515;28;20433;-77
2022/02/01 04:09:57;;;;;;;9.33;6.37;;;1.70;99.90;;;;;;5013110;28;20030;-77
2022/02/01 04:12:23;;;;;;;7.17;5.50;;;1.70;99.90;;;;;;5012980;28;20383;-77
2022/02/01 04:14:50;;;;;;;7.77;5.53;;;1.60;99.90;;;;;;5013113;28;20040;-76
2022/02/01 04:17:16;;;;;;;7.20;5.33;;;1.60;99.90;;;;;;5013073;28;20076;-77
2022/02/01 04:19:44;;;;;;;9.77;5.97;;;1.50;99.90;;;;;;5013222;28;20382;-77
2022/02/01 04:22:11;;;;;;;7.13;5.37;;;1.60;99.90;;;;;;5012652;28;20026;-77
2022/02/01 04:24:40;;;;;;;9.03;4.87;;;1.60;99.90;;;;;;5009567;28;20034;-77
2022/02/01 04:27:07;;;;;;;6.93;5.17;;;1.60;99.90;;;;;;5003735;28;20062;-77
2022/02/01 04:29:34;;;;;;;7.40;5.60;;;1.60;99.90;;;;;;4994410;28;20026;-78
2022/02/01 04:31:59;;;;;;;7.50;5.27;;;1.60;99.90;;;;;;5013213;28;20034;-78
2022/02/01 04:34:25;;;;;;;7.30;5.17;;;1.60;99.90;;;;;;5012204;28;20037;-78
2022/02/01 04:36:51;;;;;;;7.83;5.50;;;1.60;99.90;;;;;;5011973;28;20498;-77
2022/02/01 04:39:17;;;;;;;7.33;5.47;;;1.70;99.90;;;;;;5012356;28;20137;-75
2022/02/01 04:41:43;;;;;;;8.33;5.70;;;1.70;99.90;;;;;;5012913;28;20424;-76
2022/02/01 04:44:08;;;;;;;7.93;5.80;;;1.60;99.90;;;;;;5012802;28;20437;-77
2022/02/01 04:46:34;;;;;;;10.30;6.40;;;1.70;99.90;;;;;;5011262;28;20379;-76
2022/02/01 04:49:02;;;;;;;8.63;5.93;;;1.90;99.90;;;;;;5013083;28;20066;-76
2022/02/01 04:51:29;;;;;;;12.17;7.30;;;1.80;99.90;;;;;;5012560;28;20044;-77
2022/02/01 04:53:55;;;;;;;10.17;6.33;;;1.70;99.90;;;;;;5012517;28;20072;-77
2022/02/01 04:56:21;;;;;;;10.03;6.97;;;1.80;99.90;;;;;;5011434;28;20025;-76
2022/02/01 04:58:46;;;;;;;9.93;7.20;;;1.70;99.90;;;;;;5012602;28;20455;-77
2022/02/01 05:01:13;;;;;;;11.40;7.63;;;1.70;99.90;;;;;;5012915;28;20045;-77
2022/02/01 05:03:39;;;;;;;9.97;6.57;;;1.70;99.90;;;;;;5012628;28;20579;-76
2022/02/01 05:06:07;;;;;;;10.83;6.80;;;1.60;99.90;;;;;;5012459;28;20113;-77
2022/02/01 05:08:32;;;;;;;9.80;6.87;;;1.70;99.90;;;;;;5012739;28;20026;-76
2022/02/01 05:10:58;;;;;;;9.43;6.43;;;1.70;99.90;;;;;;5008234;28;20517;-77
2022/02/01 05:16:06;;;;;;;8.60;6.63;;;1.60;99.90;;;;;;5003256;28;20164;-85
2022/02/01 05:18:42;;;;;;;10.77;7.30;;;1.70;99.90;;;;;;5008134;28;20019;-85
2022/02/01 05:21:18;;;;;;;12.07;7.83;;;1.60;99.90;;;;;;5004197;28;20026;-86
2022/02/01 05:23:44;;;;;;;11.50;7.80;;;1.50;99.90;;;;;;5003950;28;20380;-86
2022/02/01 05:26:09;;;;;;;12.50;8.43;;;1.50;99.90;;;;;;5010240;28;20045;-86
2022/02/01 05:28:37;;;;;;;10.00;7.20;;;1.40;99.90;;;;;;5007299;28;20029;-86
2022/02/01 05:31:03;;;;;;;10.87;8.33;;;1.40;99.90;;;;;;5006661;28;20026;-86
2022/02/01 05:33:33;;;;;;;10.73;7.90;;;1.40;99.90;;;;;;5003314;28;20091;-86
2022/02/01 05:36:00;;;;;;;13.07;8.57;;;1.40;99.90;;;;;;5027159;28;20026;-86
2022/02/01 05:38:26;;;;;;;12.70;8.43;;;1.40;99.90;;;;;;5007891;28;20026;-86
2022/02/01 05:40:52;;;;;;;12.20;8.03;;;1.40;99.90;;;;;;5007974;28;20395;-87
2022/02/01 05:43:24;;;;;;;11.97;8.03;;;1.30;99.90;;;;;;5009718;28;20630;-86
2022/02/01 05:45:51;;;;;;;10.47;7.53;;;1.30;99.90;;;;;;5008313;28;20475;-87
2022/02/01 05:48:17;;;;;;;10.83;7.30;;;1.30;99.90;;;;;;5008957;28;20041;-87
2022/02/01 05:50:43;;;;;;;8.73;6.70;;;1.30;99.90;;;;;;5009393;28;20037;-85
2022/02/01 05:53:09;;;;;;;7.93;5.80;;;1.20;99.90;;;;;;5010178;28;20034;-85
2022/02/01 05:55:35;;;;;;;8.10;5.90;;;1.30;99.90;;;;;;5012897;28;20084;-85
2022/02/01 05:58:01;;;;;;;7.77;5.73;;;1.30;99.90;;;;;;5006073;28;20027;-85
2022/02/01 06:00:27;;;;;;;9.30;6.10;;;1.30;99.90;;;;;;5012594;28;20038;-85
2022/02/01 06:02:53;;;;;;;7.40;5.20;;;1.50;99.90;;;;;;5010088;28;20152;-85
2022/02/01 06:05:19;;;;;;;9.07;6.10;;;1.50;99.90;;;;;;5005684;28;20033;-86
2022/02/01 06:07:45;;;;;;;10.23;5.77;;;1.50;99.90;;;;;;5006973;28;20105;-86
2022/02/01 06:10:11;;;;;;;9.23;5.53;;;1.50;99.90;;;;;;5009265;28;20026;-86
2022/02/01 06:12:48;;;;;;;9.73;6.13;;;1.50;99.90;;;;;;5010225;28;20172;-86
2022/02/01 06:15:15;;;;;;;8.90;6.03;;;1.50;99.90;;;;;;5004130;28;20100;-85
2022/02/01 06:17:42;;;;;;;9.17;6.00;;;1.60;99.90;;;;;;5013166;28;20022;-84
2022/02/01 06:20:10;;;;;;;9.00;6.10;;;1.60;99.90;;;;;;5011771;28;20057;-84
2022/02/01 06:22:35;;;;;;;8.00;6.20;;;1.60;99.90;;;;;;5013725;28;20029;-85
2022/02/01 06:25:02;;;;;;;8.50;6.07;;;1.50;99.90;;;;;;5011286;28;20059;-85
2022/02/01 06:27:28;;;;;;;10.13;6.40;;;1.50;99.90;;;;;;5013245;28;20034;-82
2022/02/01 06:29:54;;;;;;;9.53;6.80;;;1.50;99.90;;;;;;5013132;28;20030;-84
2022/02/01 06:32:20;;;;;;;9.00;6.77;;;1.50;99.90;;;;;;5008471;28;20471;-86
2022/02/01 06:34:46;;;;;;;11.60;6.37;;;1.40;99.90;;;;;;5013227;28;20080;-86
2022/02/01 06:37:12;;;;;;;9.10;5.93;;;1.30;99.90;;;;;;5009002;28;20030;-85
2022/02/01 06:39:37;;;;;;;8.17;5.60;;;1.40;99.90;;;;;;5009797;28;20455;-84
2022/02/01 06:42:04;;;;;;;6.97;4.73;;;1.30;99.90;;;;;;5007955;28;20034;-85
2022/02/01 06:44:34;;;;;;;5.70;4.37;;;1.40;99.90;;;;;;5028511;28;20034;-85
2022/02/01 06:47:01;;;;;;;5.80;4.03;;;1.40;99.90;;;;;;5002868;28;20034;-84
2022/02/01 06:49:26;;;;;;;6.07;3.90;;;1.50;99.90;;;;;;5005040;28;20509;-85
2022/02/01 06:51:54;;;;;;;5.83;3.97;;;1.50;99.90;;;;;;5010872;28;20034;-85
2022/02/01 06:54:20;;;;;;;5.63;4.00;;;1.40;99.90;;;;;;5010446;28;20076;-86
2022/02/01 06:56:45;;;;;;;8.23;3.60;;;1.50;99.90;;;;;;5010935;28;20066;-85
2022/02/01 06:59:11;;;;;;;4.70;3.70;;;1.50;99.90;;;;;;5006173;28;20102;-85
2022/02/01 07:01:36;;;;;;;5.23;3.40;;;1.60;99.90;;;;;;4994863;28;20034;-87
2022/02/01 07:04:02;;;;;;;5.27;3.50;;;1.50;99.90;;;;;;5012756;28;20050;-85
2022/02/01 07:06:31;;;;;;;7.47;3.70;;;1.50;99.90;;;;;;5014145;28;20038;-85
2022/02/01 07:08:58;;;;;;;9.83;4.27;;;1.50;99.90;;;;;;5013608;28;20053;-86
2022/02/01 07:11:24;;;;;;;10.07;4.30;;;1.50;99.90;;;;;;5012490;28;20037;-86
2022/02/01 07:13:50;;;;;;;12.80;4.60;;;1.50;99.90;;;;;;5013600;28;20050;-86
2022/02/01 07:16:17;;;;;;;17.40;5.00;;;1.60;99.90;;;;;;5013173;28;20034;-87
2022/02/01 07:18:43;;;;;;;14.93;4.67;;;1.60;99.90;;;;;;5013054;28;20069;-87
2022/02/01 07:21:08;;;;;;;15.90;5.10;;;1.60;99.90;;;;;;5012113;28;20065;-87
2022/02/01 07:23:34;;;;;;;17.37;4.87;;;1.70;99.90;;;;;;5011587;28;20034;-87
2022/02/01 07:26:01;;;;;;;14.63;5.27;;;1.70;99.90;;;;;;5012875;28;20040;-87
2022/02/01 07:28:28;;;;;;;15.33;3.70;;;1.70;99.90;;;;;;5015536;28;20026;-87
2022/02/01 07:30:55;;;;;;;16.97;4.20;;;1.80;99.90;;;;;;5007014;28;20041;-86
2022/02/01 07:33:23;;;;;;;20.57;6.17;;;1.70;99.90;;;;;;5006487;28;20498;-87
2022/02/01 07:35:49;;;;;;;15.90;4.33;;;1.80;99.90;;;;;;5008154;28;20157;-85
2022/02/01 07:38:18;;;;;;;18.30;4.87;;;1.70;99.90;;;;;;5009544;28;20113;-86
2022/02/01 07:40:45;;;;;;;16.73;4.40;;;1.70;99.90;;;;;;5010401;28;20033;-86
2022/02/01 07:43:11;;;;;;;20.60;4.63;;;1.60;99.90;;;;;;5011691;28;20069;-86
2022/02/01 07:45:39;;;;;;;22.10;4.60;;;1.60;99.90;;;;;;5007141;28;20137;-86
2022/02/01 07:48:04;;;;;;;12.83;3.63;;;1.70;99.90;;;;;;5003418;28;20029;-85
2022/02/01 07:50:35;;;;;;;18.53;3.93;;;1.60;99.90;;;;;;5008259;28;20030;-84
2022/02/01 07:53:01;;;;;;;18.43;4.30;;;1.60;99.90;;;;;;5005496;28;20034;-85
2022/02/01 07:55:27;;;;;;;22.07;4.10;;;1.60;99.90;;;;;;5009098;28;20069;-86
2022/02/01 07:57:52;;;;;;;18.37;4.00;;;1.50;99.90;;;;;;5009050;28;20363;-86
2022/02/01 08:00:19;;;;;;;21.07;5.37;;;1.60;99.90;;;;;;5006843;28;20464;-85
2022/02/01 08:02:44;;;;;;;22.90;4.70;;;1.50;99.90;;;;;;5011008;28;20046;-85
2022/02/01 08:05:11;;;;;;;22.73;5.30;;;1.40;99.90;;;;;;4994242;28;20053;-86
2022/02/01 08:07:37;;;;;;;26.43;5.27;;;1.40;99.90;;;;;;5007879;28;20156;-86
2022/02/01 08:10:10;;;;;;;16.50;4.17;;;1.40;99.90;;;;;;4996430;28;20480;-86
2022/02/01 08:20:44;;;;;;;28.73;5.07;;;1.40;99.90;;;;;;5010190;28;20068;-85
2022/02/01 08:23:10;;;;;;;24.27;5.67;;;1.40;99.90;;;;;;5009902;28;20030;-86
2022/02/01 08:25:36;;;;;;;22.93;5.50;;;1.40;99.90;;;;;;5007410;28;20025;-85
2022/02/01 08:28:02;;;;;;;26.43;4.50;;;1.50;99.90;;;;;;5009054;28;20022;-86
2022/02/01 08:30:29;;;;;;;23.27;5.93;;;1.40;99.90;;;;;;5009962;28;20316;-86
2022/02/01 08:32:54;;;;;;;20.63;4.37;;;1.50;99.90;;;;;;5008068;28;20045;-85
2022/02/01 08:35:20;;;;;;;21.67;5.03;;;1.50;99.90;;;;;;5008635;28;20038;-85
2022/02/01 08:37:46;;;;;;;19.27;4.77;;;1.60;99.90;;;;;;5010149;28;20696;-86
2022/02/01 08:40:13;;;;;;;23.03;4.63;;;1.60;99.90;;;;;;5008923;28;20029;-86
2022/02/01 08:42:42;;;;;;;23.00;4.23;;;1.60;99.90;;;;;;5009904;28;20022;-85
2022/02/01 08:45:10;;;;;;;21.43;4.07;;;1.60;99.90;;;;;;5009848;28;20036;-85
2022/02/01 08:47:36;;;;;;;25.87;5.90;;;1.50;99.90;;;;;;5010761;28;20049;-86
2022/02/01 08:50:03;;;;;;;16.70;4.20;;;1.50;99.90;;;;;;5009992;28;20425;-84
2022/02/01 08:55:02;;;;;;;18.10;4.13;;;1.60;99.90;;;;;;5007419;28;20075;-84
2022/02/01 08:57:31;;;;;;;15.50;4.73;;;1.50;99.90;;;;;;5010119;28;20530;-84
2022/02/01 09:00:04;;;;;;;17.97;3.83;;;1.50;99.90;;;;;;5009277;28;20026;-83
2022/02/01 09:02:30;;;;;;;15.40;3.50;;;1.50;99.90;;;;;;5009493;28;20092;-83
2022/02/01 09:04:56;;;;;;;14.03;4.17;;;1.50;99.90;;;;;;5007554;28;20026;-85
2022/02/01 09:07:23;;;;;;;19.37;4.20;;;1.50;99.90;;;;;;5009537;28;20041;-80
2022/02/01 09:09:48;;;;;;;15.33;3.03;;;1.50;99.90;;;;;;5012650;28;20458;-77
2022/02/01 09:12:16;;;;;;;20.63;4.60;;;1.60;99.90;;;;;;5008434;28;20037;-77
2022/02/01 09:14:43;;;;;;;21.27;4.60;;;1.60;99.90;;;;;;5001174;28;20027;-77
2022/02/01 09:17:09;;;;;;;22.70;4.83;;;1.60;99.90;;;;;;5011973;28;20463;-77
2022/02/01 09:19:35;;;;;;;16.60;4.00;;;1.60;99.90;;;;;;5012981;28;20037;-77
2022/02/01 09:22:05;;;;;;;16.83;3.60;;;1.60;99.90;;;;;;5008698;28;20021;-76
2022/02/01 09:24:31;;;;;;;12.07;3.20;;;1.60;99.90;;;;;;5012302;28;20457;-77
2022/02/01 09:26:56;;;;;;;15.20;3.47;;;1.60;99.90;;;;;;5007197;28;20057;-77
2022/02/01 09:29:23;;;;;;;20.30;4.07;;;1.70;99.90;;;;;;5010439;28;20488;-77
2022/02/01 09:31:50;;;;;;;20.90;3.73;;;1.80;99.90;;;;;;5008409;28;20022;-78
2022/02/01 09:34:16;;;;;;;19.57;3.70;;;1.80;99.90;;;;;;5012288;28;20018;-77
2022/02/01 09:36:42;;;;;;;11.20;3.03;;;1.80;99.90;;;;;;5012307;28;20037;-77
2022/02/01 09:39:08;;;;;;;14.47;3.07;;;1.80;99.90;;;;;;5012132;28;20030;-75
2022/02/01 09:41:38;;;;;;;14.67;3.73;;;1.80;99.90;;;;;;5012340;28;20092;-75
2022/02/01 09:44:04;;;;;;;15.30;3.73;;;1.90;99.90;;;;;;5007623;28;20092;-76
2022/02/01 09:46:30;;;;;;;13.77;2.73;;;1.80;99.90;;;;;;5011155;28;20382;-76
2022/02/01 09:48:56;;;;;;;13.43;2.90;;;1.90;99.90;;;;;;5011556;28;20378;-75
2022/02/01 09:51:22;;;;;;;14.37;3.80;;;1.90;99.90;;;;;;5004000;28;20026;-76
2022/02/01 09:53:48;;;;;;;16.03;3.13;;;1.90;99.90;;;;;;5008770;28;20667;-76
2022/02/01 09:56:15;;;;;;;21.33;3.33;;;1.90;99.90;;;;;;5011638;28;20466;-76
2022/02/01 09:58:41;;;;;;;10.80;3.10;;;1.90;99.90;;;;;;5010155;28;20030;-76
2022/02/01 10:01:22;;;;;;;17.77;3.17;;;2.00;99.90;;;;;;5011084;28;20033;-76
2022/02/01 10:04:00;;;;;;;17.27;3.30;;;1.90;99.90;;;;;;5010967;28;20100;-76
2022/02/01 10:06:33;;;;;;;12.27;2.93;;;2.00;99.90;;;;;;5011316;28;20030;-76
2022/02/01 10:09:11;;;;;;;17.33;3.43;;;1.90;99.90;;;;;;5006086;28;20073;-76
2022/02/01 10:11:43;;;;;;;18.13;3.73;;;2.00;99.90;;;;;;5011832;28;20044;-77
2022/02/01 10:14:24;;;;;;;15.27;2.93;;;1.90;99.90;;;;;;5007876;28;20084;-77
2022/02/01 10:16:54;;;;;;;12.47;3.17;;;2.00;99.90;;;;;;5010363;28;20018;-76
2022/02/01 10:19:22;;;;;;;18.23;3.03;;;1.90;99.90;;;;;;5010853;28;20022;-76
2022/02/01 10:21:51;;;;;;;18.70;3.10;;;1.90;99.90;;;;;;5015672;28;20097;-78
2022/02/01 10:24:35;;;;;;;17.80;3.13;;;2.00;99.90;;;;;;5015980;28;20378;-75
2022/02/01 10:27:07;;;;;;;15.70;2.90;;;2.00;99.90;;;;;;5011549;28;20084;-82
2022/02/01 10:29:34;;;;;;;16.93;2.80;;;2.10;99.90;;;;;;5012256;28;20022;-82
2022/02/01 10:32:26;;;;;;;14.37;2.83;;;2.20;99.90;;;;;;5011811;28;20030;-81
2022/02/01 10:34:53;;;;;;;15.27;3.47;;;2.30;99.90;;;;;;5012104;28;20061;-82
2022/02/01 10:37:22;;;;;;;13.70;2.87;;;2.30;99.90;;;;;;5014039;28;20411;-81
2022/02/01 10:40:02;;;;;;;16.20;3.17;;;2.30;99.90;;;;;;5013143;28;20022;-81
2022/02/01 10:42:28;;;;;;;16.83;3.10;;;2.30;99.90;;;;;;5013693;28;20077;-81
2022/02/01 10:44:56;;;;;;;9.83;2.80;;;2.30;99.90;;;;;;5014379;28;20026;-81
2022/02/01 10:47:34;;;;;;;11.37;2.47;;;2.30;99.90;;;;;;5016059;28;20053;-81
2022/02/01 10:50:06;;;;;;;11.00;2.70;;;2.40;99.90;;;;;;5012249;28;20061;-82
2022/02/01 10:52:34;;;;;;;10.97;2.83;;;2.30;99.90;;;;;;5015509;28;20026;-82
2022/02/01 10:55:01;;;;;;;11.07;2.80;;;2.30;99.90;;;;;;5015402;28;20055;-82
2022/02/01 10:57:28;;;;;;;13.17;2.63;;;2.20;99.90;;;;;;5015731;28;20053;-82
2022/02/01 10:59:55;;;;;;;8.97;2.57;;;2.20;99.90;;;;;;5011005;28;20077;-82
2022/02/01 11:02:22;;;;;;;12.63;2.87;;;2.40;99.90;;;;;;5014924;28;20038;-82
2022/02/01 11:04:52;;;;;;;12.60;2.90;;;2.30;99.90;;;;;;5016884;28;20030;-80
2022/02/01 11:07:18;;;;;;;9.37;2.33;;;2.30;99.90;;;;;;5014667;28;20030;-80
2022/02/01 11:09:43;;;;;;;11.70;2.57;;;2.40;99.90;;;;;;5015412;28;20038;-81
2022/02/01 11:12:11;;;;;;;10.90;3.13;;;2.50;99.90;;;;;;5014429;28;20026;-76
2022/02/01 11:14:43;;;;;;;10.07;3.30;;;2.50;99.90;;;;;;5015484;28;20034;-76
2022/02/01 11:17:16;;;;;;;7.97;2.27;;;2.60;99.90;;;;;;5015441;28;20026;-76
2022/02/01 11:20:00;;;;;;;7.83;1.93;;;2.60;99.90;;;;;;5015315;28;20473;-76
2022/02/01 11:22:36;;;;;;;11.77;2.20;;;2.60;99.90;;;;;;5015325;28;20029;-76
2022/02/01 11:25:41;;;;;;;7.73;2.57;;;2.50;99.90;;;;;;5015168;28;20052;-76
2022/02/01 11:30:57;;;;;;;7.60;2.20;;;2.70;99.90;;;;;;5015286;28;20038;-76
2022/02/01 11:33:35;;;;;;;8.87;2.70;;;2.70;99.90;;;;;;5004394;28;20391;-76
2022/02/01 11:36:03;;;;;;;6.20;2.03;;;2.70;99.90;;;;;;5014991;28;20466;-75
2022/02/01 11:38:29;;;;;;;5.37;1.90;;;2.90;99.90;;;;;;5015189;28;20018;-75
2022/02/01 11:41:07;;;;;;;6.53;2.20;;;3.00;99.90;;;;;;5015099;28;20026;-75
2022/02/01 11:43:35;;;;;;;11.47;3.20;;;3.00;99.90;;;;;;5015126;28;20378;-76
2022/02/01 11:46:04;;;;;;;8.17;2.50;;;3.10;99.90;;;;;;5014772;28;20037;-75
2022/02/01 11:48:32;;;;;;;6.57;2.20;;;3.10;99.90;;;;;;4995850;28;20046;-76
2022/02/01 11:51:13;;;;;;;9.73;2.30;;;3.10;99.90;;;;;;5003408;28;20038;-75
2022/02/01 11:53:42;;;;;;;8.00;2.37;;;3.10;99.90;;;;;;4994995;28;20085;-75
2022/02/01 11:56:10;;;;;;;8.33;2.50;;;3.30;99.90;;;;;;4999509;28;20076;-76
2022/02/01 11:58:42;;;;;;;12.47;2.50;;;3.30;99.90;;;;;;5014428;28;20069;-76
2022/02/01 12:01:28;;;;;;;10.30;2.87;;;3.40;99.90;;;;;;5010760;28;20026;-76
2022/02/01 12:04:10;;;;;;;14.50;2.42;;;3.30;99.90;;;;;;4993856;28;20348;-75
2022/02/01 12:06:44;;;;;;;8.13;2.77;;;3.30;99.90;;;;;;5009986;28;20100;-76
2022/02/01 12:09:19;;;;;;;9.17;2.07;;;3.30;99.90;;;;;;5003233;28;20038;-76
2022/02/01 12:11:46;;;;;;;11.00;2.72;;;3.30;99.90;;;;;;5014016;28;20106;-76
2022/02/01 12:14:11;;;;;;;11.03;2.57;;;3.30;99.90;;;;;;5012426;28;20034;-76
2022/02/01 12:16:44;;;;;;;8.90;2.37;;;3.40;99.90;;;;;;5012524;28;20025;-76
2022/02/01 12:19:18;;;;;;;6.83;2.17;;;3.30;99.90;;;;;;5010129;28;20088;-77
2022/02/01 12:22:01;;;;;;;7.07;2.10;;;3.30;99.90;;;;;;5012451;28;20048;-77
2022/02/01 12:24:27;;;;;;;5.67;2.23;;;3.30;99.90;;;;;;5014133;28;20030;-76
2022/02/01 12:26:54;;;;;;;7.60;2.23;;;3.30;99.90;;;;;;5013291;28;20032;-75
2022/02/01 12:29:20;;;;;;;6.50;2.20;;;3.40;99.90;;;;;;5011532;28;20037;-75
2022/02/01 12:31:47;;;;;;;9.20;2.57;;;3.30;99.90;;;;;;5013690;28;20026;-75
2022/02/01 12:34:17;;;;;;;7.97;2.27;;;3.10;99.90;;;;;;5013433;28;20021;-75
2022/02/01 12:36:45;;;;;;;5.40;2.10;;;3.10;99.90;;;;;;5013413;28;20367;-75
2022/02/01 12:39:16;;;;;;;10.33;2.70;;;3.10;99.90;;;;;;5010002;28;20026;-75
2022/02/01 12:41:55;;;;;;;10.00;2.00;;;3.00;99.90;;;;;;5013594;28;20048;-77
2022/02/01 12:46:54;;;;;;;11.13;2.60;;;2.80;99.90;;;;;;5013768;28;20029;-76
2022/02/01 12:49:49;;;;;;;8.07;2.30;;;2.80;99.90;;;;;;5013950;28;20101;-77
2022/02/01 12:52:34;;;;;;;7.00;2.10;;;2.70;99.90;;;;;;5013685;28;20030;-77
2022/02/01 12:55:05;;;;;;;6.07;2.13;;;2.70;99.90;;;;;;5013503;28;20443;-76
2022/02/01 12:57:32;;;;;;;6.37;2.57;;;2.60;99.90;;;;;;5013468;28;20029;-76
2022/02/01 13:00:18;;;;;;;7.60;2.27;;;2.70;99.90;;;;;;5013639;28;20025;-76
2022/02/01 13:02:45;;;;;;;5.60;2.47;;;2.70;99.90;;;;;;5011758;28;20477;-77
2022/02/01 13:05:14;;;;;;;5.70;2.73;;;2.70;99.90;;;;;;4997472;28;20034;-76
2022/02/01 13:15:54;;;;;;;7.63;1.73;;;2.60;99.90;;;;;;4994005;28;20037;-82
2022/02/01 13:20:04;;;;;;;9.67;2.00;;;2.60;99.90;;;;;;5010318;28;20026;-82
2022/02/01 13:21:17;;;;;;;8.43;2.10;;;2.60;99.90;;;;;;4995505;28;20490;-83
2022/02/01 13:23:49;;;;;;;10.10;2.20;;;2.50;99.90;;;;;;5013136;28;20022;-82
2022/02/01 13:26:19;;;;;;;6.77;2.23;;;2.50;99.90;;;;;;5013007;28;20038;-81
2022/02/01 13:29:04;;;;;;;6.50;2.70;;;2.50;99.90;;;;;;5011806;28;20479;-82
2022/02/01 13:31:34;;;;;;;12.37;2.93;;;2.50;99.90;;;;;;5010752;28;20034;-81
2022/02/01 13:34:05;;;;;;;9.63;2.53;;;2.40;99.90;;;;;;5008858;28;20030;-82
2022/02/01 13:36:45;;;;;;;8.33;1.93;;;2.60;99.90;;;;;;5004580;28;20034;-81
2022/02/01 13:39:22;;;;;;;9.80;2.10;;;2.50;99.90;;;;;;5008370;28;20095;-82
2022/02/01 13:41:56;;;;;;;7.93;2.00;;;2.50;99.90;;;;;;5011502;28;20080;-81
2022/02/01 13:44:21;;;;;;;8.37;2.03;;;2.40;99.90;;;;;;5005490;28;20034;-81
2022/02/01 13:46:59;;;;;;;6.40;2.20;;;2.40;99.90;;;;;;5008977;28;20439;-81
2022/02/01 13:49:25;;;;;;;6.93;2.63;;;2.40;99.90;;;;;;5009957;28;20034;-83
2022/02/01 13:51:53;;;;;;;8.73;2.60;;;2.30;99.90;;;;;;5010628;28;20041;-82
2022/02/01 13:54:18;;;;;;;5.27;2.23;;;2.20;99.90;;;;;;5010110;28;20083;-83
2022/02/01 13:56:47;;;;;;;7.70;2.10;;;2.30;99.90;;;;;;5011991;28;20463;-82
2022/02/01 13:59:16;;;;;;;8.87;2.53;;;2.30;99.90;;;;;;5013187;28;20117;-82
2022/02/01 14:01:44;;;;;;;8.20;2.50;;;2.20;99.90;;;;;;5013949;28;20363;-82
2022/02/01 14:04:18;;;;;;;8.43;2.13;;;2.30;99.90;;;;;;5015166;28;20394;-84
2022/02/01 14:06:54;;;;;;;10.13;2.63;;;2.30;99.90;;;;;;5011040;28;20026;-84
2022/02/01 14:09:40;;;;;;;5.50;1.90;;;2.30;99.90;;;;;;5008927;28;20084;-82
2022/02/01 14:12:33;;;;;;;;;;;2.30;99.90;;;;;;5011197;28;20390;-83
2022/02/01 14:25:45;;;;;;;9.50;2.27;;;2.30;99.90;;;;;;5013197;28;20390;-83
2022/02/01 14:33:40;;;;;;;6.50;2.03;;;2.20;99.90;;;;;;5017376;28;20100;-88
2022/02/01 14:36:08;;;;;;;8.47;2.47;;;2.20;99.90;;;;;;5010025;28;20018;-90
2022/02/01 14:46:27;;;;;;;7.23;2.20;;;2.20;99.90;;;;;;5018400;28;20026;-92
2022/02/01 14:48:53;;;;;;;8.10;2.27;;;2.10;99.90;;;;;;5014350;28;20030;-82
2022/02/01 14:51:19;;;;;;;6.40;2.13;;;2.10;99.90;;;;;;5011437;28;20497;-82
2022/02/01 14:53:44;;;;;;;10.80;1.87;;;2.00;99.90;;;;;;5009558;28;20033;-83
2022/02/01 14:56:18;;;;;;;9.23;2.47;;;1.90;99.90;;;;;;5010821;28;20038;-83
2022/02/01 15:07:00;;;;;;;7.00;2.40;;;1.80;99.90;;;;;;5011425;28;20034;-83
2022/02/01 15:14:55;;;;;;;8.87;2.53;;;1.80;99.90;;;;;;5007410;28;20096;-78
2022/02/01 15:17:20;;;;;;;4.77;2.07;;;1.70;99.90;;;;;;5008982;28;20061;-79
2022/02/01 15:19:46;;;;;;;3.97;1.53;;;1.60;99.90;;;;;;5009461;28;20025;-79
2022/02/01 15:22:11;;;;;;;4.53;2.00;;;1.60;99.90;;;;;;5008781;28;20120;-79
2022/02/01 15:24:37;;;;;;;6.80;1.93;;;1.70;99.90;;;;;;5006877;28;20449;-80